Fayetteville, West Virginia
Current Conditions -  °F | °C
As of 3:31 AM on Sunday 21 Dec 2014 (Local Time) from KBKW Reporting Station
Overcast Overcast  
Wind Chill: 31°   Ceiling: 800
Heat Index: 31°   Visibility: 10mi
Dew Point: 25°   Wind: 0mph
Humidity: 79%   Direction: NA
Pressure: 30.2"   Gusts: NA
Location:  38.05°N, 81.1°W
Report Text: KBKW 210831Z AUTO 00000KT 10SM BKN008 OVC032 M01/M04 A3020 RMK AO2 T10061039
Loading
Personal Weather Stations






























Interactive Weather Map New forecast layout! Learn more

10-Day Weather Forecast

Advertisements
Track Severe Weather on mobile